createdAt,value
2018-09-30T00:00:33.214Z,789.00
2018-09-30T00:01:33.821Z,788.00
2018-09-30T00:02:34.159Z,787.00
2018-09-30T00:03:34.849Z,786.00
2018-09-30T00:04:35.357Z,786.00
2018-09-30T00:05:35.762Z,786.00
2018-09-30T00:06:36.255Z,786.00
2018-09-30T00:07:36.612Z,786.00
2018-09-30T00:08:37.126Z,786.00
2018-09-30T00:09:37.461Z,786.00
2018-09-30T00:10:37.817Z,786.00
2018-09-30T00:11:38.179Z,786.00
2018-09-30T00:12:38.566Z,786.00
2018-09-30T00:13:38.947Z,786.00
2018-09-30T00:14:39.313Z,787.00
2018-09-30T00:15:39.798Z,787.00
2018-09-30T00:16:40.198Z,786.00
2018-09-30T00:17:40.879Z,786.00
2018-09-30T00:18:41.174Z,786.00
2018-09-30T00:19:41.729Z,787.00
2018-09-30T00:20:40.981Z,786.00
2018-09-30T00:21:42.361Z,786.00
2018-09-30T00:22:42.794Z,786.00
2018-09-30T00:23:42.500Z,786.00
2018-09-30T00:24:42.912Z,787.00
2018-09-30T00:25:43.786Z,786.00
2018-09-30T00:26:45.148Z,787.00
2018-09-30T00:27:45.519Z,788.00
2018-09-30T00:28:45.870Z,789.00
2018-09-30T00:29:46.190Z,788.00
2018-09-30T00:30:46.596Z,788.00
2018-09-30T00:31:46.886Z,788.00
2018-09-30T00:32:47.219Z,787.00
2018-09-30T00:33:47.701Z,787.00
2018-09-30T00:34:48.037Z,787.00
2018-09-30T00:35:48.360Z,787.00
2018-09-30T00:36:48.770Z,787.00
2018-09-30T00:37:49.109Z,787.00
2018-09-30T00:38:49.442Z,786.00
2018-09-30T00:39:49.763Z,786.00
2018-09-30T00:40:50.060Z,786.00
2018-09-30T00:41:50.343Z,787.00
2018-09-30T00:41:58.402Z,787.00
2018-09-30T00:42:59.801Z,787.00
2018-09-30T00:44:00.313Z,786.00
2018-09-30T00:45:00.884Z,786.00
2018-09-30T00:46:01.199Z,786.00
2018-09-30T00:47:01.894Z,785.00
2018-09-30T00:48:02.443Z,786.00
2018-09-30T00:49:02.781Z,786.00
2018-09-30T00:50:03.097Z,786.00
2018-09-30T00:51:03.397Z,786.00
2018-09-30T00:52:03.681Z,786.00
2018-09-30T00:53:04.049Z,787.00
2018-09-30T00:54:08.484Z,787.00
2018-09-30T00:55:04.793Z,787.00
2018-09-30T00:56:04.829Z,786.00
2018-09-30T00:57:06.358Z,786.00
2018-09-30T00:58:05.673Z,787.00
2018-09-30T00:59:07.434Z,787.00
2018-09-30T01:00:07.795Z,787.00
2018-09-30T01:01:08.099Z,787.00
2018-09-30T01:02:08.382Z,792.00
2018-09-30T01:03:08.685Z,788.00
2018-09-30T01:04:09.077Z,787.00
2018-09-30T01:05:09.381Z,787.00
2018-09-30T01:06:09.739Z,786.00
2018-09-30T01:07:10.074Z,787.00
2018-09-30T01:08:10.365Z,787.00
2018-09-30T01:09:10.722Z,787.00
2018-09-30T01:10:11.041Z,786.00
2018-09-30T01:11:11.356Z,787.00
2018-09-30T01:12:11.692Z,787.00
2018-09-30T01:13:12.080Z,787.00
2018-09-30T01:14:12.420Z,788.00
2018-09-30T01:15:12.819Z,788.00
2018-09-30T01:16:13.186Z,788.00
2018-09-30T01:17:13.486Z,788.00
2018-09-30T01:18:13.777Z,788.00
2018-09-30T01:19:14.098Z,787.00
2018-09-30T01:20:14.545Z,787.00
2018-09-30T01:21:14.923Z,787.00
2018-09-30T01:22:15.261Z,787.00
2018-09-30T01:23:15.581Z,788.00
2018-09-30T01:24:15.883Z,788.00
2018-09-30T01:25:16.432Z,788.00
2018-09-30T01:26:16.811Z,787.00
2018-09-30T01:27:17.116Z,787.00
2018-09-30T01:28:17.039Z,787.00
2018-09-30T01:29:17.473Z,788.00
2018-09-30T01:30:18.137Z,792.00
2018-09-30T01:30:26.257Z,792.00
2018-09-30T01:31:27.579Z,792.00
2018-09-30T01:32:27.881Z,794.00
2018-09-30T01:33:28.245Z,793.00
2018-09-30T01:34:28.579Z,793.00
2018-09-30T01:35:28.942Z,792.00
2018-09-30T01:36:29.290Z,788.00
2018-09-30T01:37:29.630Z,792.00
2018-09-30T01:38:30.081Z,794.00
2018-09-30T01:39:29.432Z,796.00
2018-09-30T01:40:30.767Z,795.00
2018-09-30T01:41:31.111Z,793.00
2018-09-30T01:42:31.438Z,794.00
2018-09-30T01:43:31.843Z,792.00
2018-09-30T01:44:32.184Z,789.00
2018-09-30T01:45:31.935Z,788.00
2018-09-30T01:46:33.441Z,789.00
2018-09-30T01:47:33.764Z,792.00
2018-09-30T01:48:34.292Z,792.00
2018-09-30T01:49:34.794Z,793.00
2018-09-30T01:50:35.162Z,792.00
2018-09-30T01:51:35.595Z,792.00
2018-09-30T01:52:36.121Z,789.00
2018-09-30T01:53:35.671Z,788.00
2018-09-30T01:54:35.536Z,792.00
2018-09-30T01:55:37.072Z,790.00
2018-09-30T01:56:37.657Z,789.00
2018-09-30T01:57:37.318Z,788.00
2018-09-30T01:58:37.292Z,788.00
2018-09-30T01:59:38.753Z,788.00
2018-09-30T02:00:39.739Z,788.00
2018-09-30T02:01:40.202Z,788.00
2018-09-30T02:02:40.965Z,788.00
2018-09-30T02:03:40.160Z,788.00
2018-09-30T02:04:41.422Z,788.00
2018-09-30T02:05:42.288Z,788.00
2018-09-30T02:06:42.559Z,792.00
2018-09-30T02:07:43.080Z,788.00
2018-09-30T02:08:42.955Z,788.00
2018-09-30T02:09:43.017Z,788.00
2018-09-30T02:10:44.271Z,788.00
2018-09-30T02:11:44.073Z,788.00
2018-09-30T02:12:44.664Z,792.00
2018-09-30T02:13:45.083Z,790.00
2018-09-30T02:14:46.389Z,788.00
2018-09-30T02:15:46.887Z,790.00
2018-09-30T02:16:46.219Z,788.00
2018-09-30T02:17:47.778Z,790.00
2018-09-30T02:18:48.108Z,789.00
2018-09-30T02:19:48.595Z,793.00
2018-09-30T02:20:48.868Z,792.00
2018-09-30T02:21:49.177Z,792.00
2018-09-30T02:22:49.518Z,790.00
2018-09-30T02:23:50.325Z,789.00
2018-09-30T02:24:50.598Z,788.00
2018-09-30T02:24:59.002Z,790.00
2018-09-30T02:26:00.305Z,793.00
2018-09-30T02:27:01.274Z,792.00
2018-09-30T02:28:01.442Z,793.00
2018-09-30T02:29:01.843Z,794.00
2018-09-30T02:30:02.136Z,793.00
2018-09-30T02:31:02.453Z,792.00
2018-09-30T02:32:02.829Z,790.00
2018-09-30T02:33:03.196Z,788.00
2018-09-30T02:34:02.450Z,788.00
2018-09-30T02:35:03.863Z,788.00
2018-09-30T02:36:02.903Z,788.00
2018-09-30T02:37:04.896Z,792.00
2018-09-30T02:38:05.363Z,788.00
2018-09-30T02:39:05.807Z,792.00
2018-09-30T02:40:06.106Z,793.00
2018-09-30T02:41:05.458Z,795.00
2018-09-30T02:42:07.028Z,794.00
2018-09-30T02:43:07.368Z,795.00
2018-09-30T02:44:07.634Z,794.00
2018-09-30T02:45:07.963Z,793.00
2018-09-30T02:46:08.125Z,793.00
2018-09-30T02:47:09.023Z,793.00
2018-09-30T02:48:10.008Z,793.00
2018-09-30T02:49:10.432Z,793.00
2018-09-30T02:50:10.735Z,792.00
2018-09-30T02:51:11.169Z,792.00
2018-09-30T02:52:11.952Z,792.00
2018-09-30T02:53:12.947Z,790.00
2018-09-30T02:54:12.211Z,790.00
2018-09-30T02:55:13.802Z,789.00
2018-09-30T02:56:14.310Z,789.00
2018-09-30T02:57:16.108Z,792.00
2018-09-30T02:58:14.711Z,790.00
2018-09-30T02:59:15.217Z,793.00
2018-09-30T03:00:16.872Z,794.00
2018-09-30T03:01:17.201Z,793.00
2018-09-30T03:02:17.507Z,793.00
2018-09-30T03:03:17.900Z,793.00
2018-09-30T03:04:18.167Z,792.00
2018-09-30T03:05:18.509Z,793.00
2018-09-30T03:06:18.893Z,792.00
2018-09-30T03:07:19.297Z,793.00
2018-09-30T03:08:19.690Z,794.00
2018-09-30T03:09:20.151Z,793.00
2018-09-30T03:10:20.536Z,793.00
2018-09-30T03:11:20.868Z,793.00
2018-09-30T03:12:21.230Z,792.00
2018-09-30T03:13:21.566Z,792.00
2018-09-30T03:14:22.334Z,792.00
2018-09-30T03:15:21.573Z,794.00
2018-09-30T03:16:23.059Z,794.00
2018-09-30T03:16:33.085Z,794.00
2018-09-30T03:17:34.495Z,793.00
2018-09-30T03:18:34.838Z,794.00
2018-09-30T03:19:35.299Z,795.00
2018-09-30T03:20:35.656Z,794.00
2018-09-30T03:21:36.279Z,794.00
2018-09-30T03:22:36.723Z,795.00
2018-09-30T03:23:37.044Z,794.00
2018-09-30T03:24:37.369Z,793.00
2018-09-30T03:25:37.642Z,794.00
2018-09-30T03:26:38.040Z,793.00
2018-09-30T03:27:38.685Z,793.00
2018-09-30T03:28:39.035Z,792.00
2018-09-30T03:29:39.445Z,792.00
2018-09-30T03:30:39.883Z,793.00
2018-09-30T03:31:40.328Z,790.00
2018-09-30T03:32:40.804Z,792.00
2018-09-30T03:33:41.270Z,796.00
2018-09-30T03:34:41.592Z,796.00
2018-09-30T03:35:41.888Z,795.00
2018-09-30T03:36:42.225Z,794.00
2018-09-30T03:37:42.670Z,793.00
2018-09-30T03:38:42.090Z,793.00
2018-09-30T03:39:43.461Z,793.00
2018-09-30T03:40:42.784Z,793.00
2018-09-30T03:41:44.114Z,794.00
2018-09-30T03:42:44.593Z,793.00
2018-09-30T03:43:44.926Z,793.00
2018-09-30T03:44:45.286Z,793.00
2018-09-30T03:45:45.600Z,792.00
2018-09-30T03:46:45.972Z,793.00
2018-09-30T03:47:46.321Z,792.00
2018-09-30T03:48:46.897Z,792.00
2018-09-30T03:49:47.209Z,792.00
2018-09-30T03:50:47.596Z,793.00
2018-09-30T03:51:47.903Z,792.00
2018-09-30T03:52:48.254Z,792.00
2018-09-30T03:53:48.553Z,790.00
2018-09-30T03:54:48.834Z,792.00
2018-09-30T03:55:49.095Z,792.00
2018-09-30T03:56:49.445Z,793.00
2018-09-30T03:57:48.736Z,792.00
2018-09-30T03:58:50.189Z,792.00
2018-09-30T03:59:50.460Z,794.00
2018-09-30T04:00:50.864Z,795.00
2018-09-30T04:00:59.394Z,795.00
2018-09-30T04:02:00.631Z,794.00
2018-09-30T04:03:01.047Z,793.00
2018-09-30T04:04:01.413Z,793.00
2018-09-30T04:05:01.731Z,792.00
2018-09-30T04:06:02.028Z,794.00
2018-09-30T04:07:02.353Z,796.00
2018-09-30T04:08:02.673Z,795.00
2018-09-30T04:09:02.934Z,794.00
2018-09-30T04:10:03.271Z,794.00
2018-09-30T04:11:02.486Z,793.00
2018-09-30T04:12:03.811Z,793.00
2018-09-30T04:13:04.544Z,793.00
2018-09-30T04:14:05.021Z,793.00
2018-09-30T04:15:05.381Z,792.00
2018-09-30T04:16:05.749Z,794.00
2018-09-30T04:17:06.333Z,793.00
2018-09-30T04:18:06.062Z,793.00
2018-09-30T04:19:07.418Z,794.00
2018-09-30T04:20:07.828Z,794.00
2018-09-30T04:21:08.355Z,793.00
2018-09-30T04:22:08.696Z,793.00
2018-09-30T04:23:09.028Z,794.00
2018-09-30T04:24:09.422Z,793.00
2018-09-30T04:25:10.132Z,793.00
2018-09-30T04:26:10.388Z,792.00
2018-09-30T04:27:10.695Z,792.00
2018-09-30T04:28:11.345Z,792.00
2018-09-30T04:29:11.705Z,793.00
2018-09-30T04:30:12.002Z,794.00
2018-09-30T04:31:12.330Z,794.00
2018-09-30T04:32:12.727Z,794.00
2018-09-30T04:33:13.279Z,794.00
2018-09-30T04:34:12.728Z,793.00
2018-09-30T04:35:14.057Z,795.00
2018-09-30T04:36:14.392Z,795.00
2018-09-30T04:37:14.717Z,795.00
2018-09-30T04:38:15.083Z,794.00
2018-09-30T04:39:15.550Z,795.00
2018-09-30T04:40:15.991Z,797.00
2018-09-30T04:41:16.294Z,796.00
2018-09-30T04:42:16.788Z,797.00
2018-09-30T04:43:17.144Z,796.00
2018-09-30T04:44:17.690Z,797.00
2018-09-30T04:45:18.003Z,797.00
2018-09-30T04:46:18.337Z,797.00
2018-09-30T04:46:26.650Z,796.00
2018-09-30T04:47:28.021Z,796.00
2018-09-30T04:48:28.392Z,798.00
2018-09-30T04:49:28.759Z,798.00
2018-09-30T04:50:29.104Z,797.00
2018-09-30T04:51:29.452Z,798.00
2018-09-30T04:52:29.721Z,796.00
2018-09-30T04:53:30.598Z,795.00
2018-09-30T04:54:31.016Z,796.00
2018-09-30T04:55:31.283Z,796.00
2018-09-30T04:56:31.594Z,795.00
2018-09-30T04:57:31.903Z,796.00
2018-09-30T04:58:32.218Z,796.00
2018-09-30T04:59:32.613Z,797.00
2018-09-30T05:00:32.919Z,798.00
2018-09-30T05:01:33.229Z,797.00
2018-09-30T05:02:33.506Z,796.00
2018-09-30T05:03:33.896Z,797.00
2018-09-30T05:04:34.259Z,797.00
2018-09-30T05:05:34.597Z,796.00
2018-09-30T05:06:33.777Z,795.00
2018-09-30T05:07:35.065Z,797.00
2018-09-30T05:08:35.549Z,797.00
2018-09-30T05:09:36.211Z,798.00
2018-09-30T05:10:36.564Z,797.00
2018-09-30T05:11:36.834Z,798.00
2018-09-30T05:12:36.148Z,797.00
2018-09-30T05:13:37.504Z,797.00
2018-09-30T05:14:37.865Z,797.00
2018-09-30T05:15:38.151Z,797.00
2018-09-30T05:16:38.608Z,797.00
2018-09-30T05:17:39.479Z,797.00
2018-09-30T05:18:39.904Z,797.00
2018-09-30T05:19:40.207Z,797.00
2018-09-30T05:20:40.523Z,796.00
2018-09-30T05:21:39.893Z,797.00
2018-09-30T05:22:41.211Z,797.00
2018-09-30T05:23:41.561Z,797.00
2018-09-30T05:24:41.861Z,796.00
2018-09-30T05:25:42.257Z,795.00
2018-09-30T05:26:41.462Z,798.00
2018-09-30T05:27:42.952Z,797.00
2018-09-30T05:28:41.793Z,798.00
2018-09-30T05:29:43.122Z,797.00
2018-09-30T05:30:43.405Z,796.00
2018-09-30T05:31:43.794Z,796.00
2018-09-30T05:32:44.079Z,795.00
2018-09-30T05:33:44.773Z,795.00
2018-09-30T05:34:44.089Z,795.00
2018-09-30T05:34:52.403Z,795.00
2018-09-30T05:35:53.900Z,796.00
2018-09-30T05:36:54.167Z,795.00
2018-09-30T05:37:54.420Z,795.00
2018-09-30T05:38:54.741Z,795.00
2018-09-30T05:39:55.023Z,794.00
2018-09-30T05:40:55.809Z,796.00
2018-09-30T05:41:56.086Z,796.00
2018-09-30T05:42:56.316Z,798.00
2018-09-30T05:43:56.687Z,798.00
2018-09-30T05:44:57.016Z,797.00
2018-09-30T05:45:57.302Z,796.00
2018-09-30T05:46:57.572Z,797.00
2018-09-30T05:47:57.911Z,796.00
2018-09-30T05:48:57.335Z,797.00
2018-09-30T05:49:58.792Z,796.00
2018-09-30T05:50:59.194Z,796.00
2018-09-30T05:51:59.487Z,797.00
2018-09-30T05:52:59.924Z,796.00
2018-09-30T05:54:00.256Z,796.00
2018-09-30T05:55:00.566Z,797.00
2018-09-30T05:56:01.311Z,795.00
2018-09-30T05:57:00.785Z,794.00
2018-09-30T05:58:02.258Z,795.00
2018-09-30T05:59:01.637Z,797.00
2018-09-30T06:00:03.382Z,796.00
2018-09-30T06:01:03.700Z,796.00
2018-09-30T06:02:04.016Z,796.00
2018-09-30T06:03:04.341Z,795.00
2018-09-30T06:04:04.772Z,796.00
2018-09-30T06:05:04.046Z,796.00
2018-09-30T06:06:05.421Z,795.00
2018-09-30T06:07:05.728Z,796.00
2018-09-30T06:08:06.296Z,796.00
2018-09-30T06:09:06.730Z,797.00
2018-09-30T06:10:05.998Z,797.00
2018-09-30T06:11:07.358Z,796.00
2018-09-30T06:12:07.658Z,796.00
2018-09-30T06:13:07.960Z,795.00
2018-09-30T06:14:08.608Z,795.00
2018-09-30T06:15:07.684Z,794.00
2018-09-30T06:16:09.018Z,795.00
2018-09-30T06:17:09.302Z,796.00
2018-09-30T06:18:09.615Z,795.00
2018-09-30T06:19:10.131Z,796.00
2018-09-30T06:20:10.513Z,795.00
2018-09-30T06:21:10.959Z,794.00
2018-09-30T06:22:11.324Z,796.00
2018-09-30T06:23:11.631Z,795.00
2018-09-30T06:23:20.083Z,794.00
2018-09-30T06:24:21.486Z,795.00
2018-09-30T06:25:21.853Z,796.00
2018-09-30T06:26:22.110Z,796.00
2018-09-30T06:27:22.416Z,795.00
2018-09-30T06:28:22.764Z,795.00
2018-09-30T06:29:23.231Z,795.00
2018-09-30T06:30:23.550Z,795.00
2018-09-30T06:31:23.850Z,794.00
2018-09-30T06:32:24.132Z,794.00
2018-09-30T06:33:24.407Z,795.00
2018-09-30T06:34:24.799Z,794.00
2018-09-30T06:35:25.131Z,794.00
2018-09-30T06:36:25.428Z,793.00
2018-09-30T06:37:25.936Z,793.00
2018-09-30T06:38:26.452Z,794.00
2018-09-30T06:39:26.956Z,793.00
2018-09-30T06:40:27.304Z,794.00
2018-09-30T06:41:26.602Z,794.00
2018-09-30T06:42:26.842Z,793.00
2018-09-30T06:43:28.142Z,793.00
2018-09-30T06:44:28.502Z,795.00
2018-09-30T06:45:28.970Z,794.00
2018-09-30T06:46:28.285Z,793.00
2018-09-30T06:47:29.545Z,793.00
2018-09-30T06:48:29.834Z,792.00
2018-09-30T06:49:30.192Z,793.00
2018-09-30T06:50:30.544Z,792.00
2018-09-30T06:51:31.422Z,790.00
2018-09-30T06:52:31.890Z,788.00
2018-09-30T06:53:32.345Z,792.00
2018-09-30T06:54:32.721Z,792.00
2018-09-30T06:55:33.344Z,792.00
2018-09-30T06:56:33.781Z,789.00
2018-09-30T06:57:34.112Z,789.00
2018-09-30T06:58:34.532Z,788.00
2018-09-30T06:59:34.994Z,788.00
2018-09-30T07:00:35.296Z,787.00
2018-09-30T07:01:35.781Z,793.00
2018-09-30T07:02:36.204Z,794.00
2018-09-30T07:03:36.678Z,792.00
2018-09-30T07:04:37.076Z,790.00
2018-09-30T07:05:37.411Z,792.00
2018-09-30T07:06:37.864Z,790.00
2018-09-30T07:07:38.195Z,788.00
2018-09-30T07:08:38.661Z,788.00
2018-09-30T07:09:00.857Z,788.00
2018-09-30T07:10:01.344Z,788.00
2018-09-30T07:11:01.692Z,788.00
2018-09-30T07:12:02.110Z,788.00
2018-09-30T07:13:02.455Z,788.00
2018-09-30T07:14:02.823Z,787.00
2018-09-30T07:15:03.287Z,787.00
2018-09-30T07:16:03.666Z,786.00
2018-09-30T07:17:04.074Z,787.00
2018-09-30T07:18:04.401Z,793.00
2018-09-30T07:19:04.830Z,793.00
2018-09-30T07:20:05.192Z,792.00
2018-09-30T07:21:05.558Z,790.00
2018-09-30T07:22:05.856Z,792.00
2018-09-30T07:23:06.224Z,789.00
2018-09-30T07:24:06.697Z,788.00
2018-09-30T07:25:07.235Z,788.00
2018-09-30T07:26:07.561Z,787.00
2018-09-30T07:27:08.019Z,786.00
2018-09-30T07:28:08.472Z,786.00
2018-09-30T07:29:08.893Z,787.00
2018-09-30T07:30:09.243Z,787.00
2018-09-30T07:31:09.646Z,792.00
2018-09-30T07:32:09.939Z,789.00
2018-09-30T07:33:10.306Z,787.00
2018-09-30T07:34:10.618Z,786.00
2018-09-30T07:35:11.276Z,786.00
2018-09-30T07:36:10.627Z,786.00
2018-09-30T07:37:12.031Z,786.00
2018-09-30T07:38:12.593Z,786.00
2018-09-30T07:39:12.881Z,787.00
2018-09-30T07:40:13.284Z,786.00
2018-09-30T07:41:13.772Z,787.00
2018-09-30T07:42:14.603Z,787.00
2018-09-30T07:43:15.126Z,787.00
2018-09-30T07:44:15.436Z,786.00
2018-09-30T07:45:15.858Z,786.00
2018-09-30T07:46:16.196Z,785.00
2018-09-30T07:47:16.525Z,786.00
2018-09-30T07:48:16.843Z,787.00
2018-09-30T07:49:17.152Z,788.00
2018-09-30T07:50:17.485Z,792.00
2018-09-30T07:51:17.910Z,792.00
2018-09-30T07:52:18.291Z,788.00
2018-09-30T07:53:18.851Z,788.00
2018-09-30T07:53:27.188Z,787.00
2018-09-30T07:54:28.459Z,787.00
2018-09-30T07:55:28.809Z,787.00
2018-09-30T07:56:29.171Z,792.00
2018-09-30T07:57:29.627Z,794.00
2018-09-30T07:58:30.131Z,794.00
2018-09-30T07:59:30.655Z,794.00
2018-09-30T08:00:31.174Z,792.00
2018-09-30T08:01:31.739Z,792.00
2018-09-30T08:02:32.137Z,788.00
2018-09-30T08:03:32.637Z,786.00
2018-09-30T08:04:33.145Z,784.00
2018-09-30T08:05:33.674Z,782.00
2018-09-30T08:06:34.569Z,783.00
2018-09-30T08:07:34.017Z,784.00
2018-09-30T08:08:34.439Z,784.00
2018-09-30T08:09:35.753Z,784.00
2018-09-30T08:10:36.152Z,778.00
2018-09-30T08:11:36.573Z,774.00
2018-09-30T08:12:37.073Z,770.00
2018-09-30T08:13:37.526Z,766.00
2018-09-30T08:14:38.158Z,763.00
2018-09-30T08:15:38.551Z,761.00
2018-09-30T08:16:39.000Z,759.00
2018-09-30T08:17:38.279Z,758.00
2018-09-30T08:18:38.887Z,756.00
2018-09-30T08:19:39.558Z,754.00
2018-09-30T08:20:40.042Z,751.00
2018-09-30T08:21:41.372Z,749.00
2018-09-30T08:22:41.769Z,748.00
2018-09-30T08:23:42.170Z,747.00
2018-09-30T08:24:42.574Z,747.00
2018-09-30T08:25:43.173Z,748.00
2018-09-30T08:26:43.901Z,747.00
2018-09-30T08:27:44.228Z,746.00
2018-09-30T08:28:44.575Z,747.00
2018-09-30T08:29:45.281Z,748.00
2018-09-30T08:30:45.656Z,747.00
2018-09-30T08:31:45.046Z,746.00
2018-09-30T08:32:46.361Z,746.00
2018-09-30T08:33:47.252Z,746.00
2018-09-30T08:34:47.605Z,746.00
2018-09-30T08:35:48.002Z,747.00
2018-09-30T08:36:48.214Z,748.00
2018-09-30T08:37:48.561Z,749.00
2018-09-30T08:38:48.911Z,751.00
2018-09-30T08:39:49.338Z,753.00
2018-09-30T08:40:48.644Z,753.00
2018-09-30T08:41:49.999Z,753.00
2018-09-30T08:42:49.432Z,754.00
2018-09-30T08:43:51.037Z,754.00
2018-09-30T08:44:00.056Z,753.00
2018-09-30T08:45:00.330Z,753.00
2018-09-30T08:46:00.644Z,754.00
2018-09-30T08:47:00.986Z,756.00
2018-09-30T08:48:01.894Z,756.00
2018-09-30T08:49:03.181Z,758.00
2018-09-30T08:50:02.528Z,760.00
2018-09-30T08:51:02.875Z,745.00
2018-09-30T08:52:03.232Z,763.00
2018-09-30T08:53:03.614Z,766.00
2018-09-30T08:54:03.947Z,765.00
2018-09-30T08:55:04.286Z,764.00
2018-09-30T08:56:04.727Z,763.00
2018-09-30T08:57:04.313Z,761.00
2018-09-30T08:58:05.700Z,762.00
2018-09-30T08:59:06.064Z,762.00
2018-09-30T09:00:06.481Z,761.00
2018-09-30T09:01:06.851Z,762.00
2018-09-30T09:02:07.191Z,762.00
2018-09-30T09:03:07.647Z,762.00
2018-09-30T09:04:07.115Z,762.00
2018-09-30T09:05:08.679Z,762.00
2018-09-30T09:06:08.065Z,760.00
2018-09-30T09:07:09.582Z,761.00
2018-09-30T09:08:09.989Z,760.00
2018-09-30T09:09:10.421Z,759.00
2018-09-30T09:10:11.018Z,759.00
2018-09-30T09:11:11.416Z,759.00
2018-09-30T09:12:11.850Z,759.00
2018-09-30T09:13:12.406Z,760.00
2018-09-30T09:14:13.144Z,762.00
2018-09-30T09:15:13.622Z,762.00
2018-09-30T09:16:13.959Z,762.00
2018-09-30T09:17:14.506Z,762.00
2018-09-30T09:18:14.878Z,762.00
2018-09-30T09:19:15.222Z,762.00
2018-09-30T09:20:15.677Z,762.00
2018-09-30T09:21:16.267Z,763.00
2018-09-30T09:22:16.628Z,763.00
2018-09-30T09:23:17.131Z,763.00
2018-09-30T09:24:18.034Z,763.00
2018-09-30T09:25:18.541Z,763.00
2018-09-30T09:26:18.995Z,763.00
2018-09-30T09:27:19.328Z,762.00
2018-09-30T09:28:19.756Z,761.00
2018-09-30T09:29:20.086Z,762.00
2018-09-30T09:29:28.157Z,760.00
2018-09-30T09:30:29.489Z,760.00
2018-09-30T09:31:29.955Z,762.00
2018-09-30T09:32:29.199Z,762.00
2018-09-30T09:33:30.428Z,763.00
2018-09-30T09:34:30.708Z,763.00
2018-09-30T09:35:31.030Z,763.00
2018-09-30T09:36:31.300Z,764.00
2018-09-30T09:37:31.606Z,763.00
2018-09-30T09:38:32.046Z,762.00
2018-09-30T09:39:31.463Z,763.00
2018-09-30T09:40:32.808Z,763.00
2018-09-30T09:41:33.130Z,760.00
2018-09-30T09:42:34.596Z,759.00
2018-09-30T09:43:33.946Z,758.00
2018-09-30T09:44:34.591Z,757.00
2018-09-30T09:45:34.950Z,762.00
2018-09-30T09:46:35.317Z,763.00
2018-09-30T09:47:35.611Z,763.00
2018-09-30T09:48:35.917Z,760.00
2018-09-30T09:49:36.227Z,761.00
2018-09-30T09:50:36.637Z,760.00
2018-09-30T09:51:36.940Z,760.00
2018-09-30T09:52:37.463Z,759.00
2018-09-30T09:53:36.754Z,760.00
2018-09-30T09:54:38.093Z,760.00
2018-09-30T09:55:38.456Z,758.00
2018-09-30T09:56:38.793Z,756.00
2018-09-30T09:57:39.165Z,758.00
2018-09-30T09:58:39.570Z,760.00
2018-09-30T09:59:40.110Z,763.00
2018-09-30T10:00:40.508Z,763.00
2018-09-30T10:01:40.966Z,764.00
2018-09-30T10:02:41.266Z,768.00
2018-09-30T10:03:41.684Z,766.00
2018-09-30T10:04:42.084Z,769.00
2018-09-30T10:05:42.171Z,765.00
2018-09-30T10:06:42.520Z,765.00
2018-09-30T10:07:42.815Z,763.00
2018-09-30T10:08:43.149Z,762.00
2018-09-30T10:09:43.495Z,764.00
2018-09-30T10:10:43.981Z,763.00
2018-09-30T10:11:44.365Z,764.00
2018-09-30T10:12:44.742Z,763.00
2018-09-30T10:13:45.158Z,763.00
2018-09-30T10:13:53.606Z,763.00
2018-09-30T10:14:54.925Z,765.00
2018-09-30T10:15:55.831Z,766.00
2018-09-30T10:16:56.156Z,765.00
2018-09-30T10:17:56.574Z,766.00
2018-09-30T10:18:56.919Z,765.00
2018-09-30T10:19:57.407Z,765.00
2018-09-30T10:20:57.902Z,765.00
2018-09-30T10:21:58.266Z,765.00
2018-09-30T10:22:58.657Z,765.00
2018-09-30T10:23:58.968Z,765.00
2018-09-30T10:24:59.377Z,764.00
2018-09-30T10:25:59.763Z,763.00
2018-09-30T10:27:00.424Z,763.00
2018-09-30T10:27:59.853Z,763.00
2018-09-30T10:29:01.781Z,763.00
2018-09-30T10:30:02.183Z,763.00
2018-09-30T10:31:02.531Z,763.00
2018-09-30T10:32:03.320Z,763.00
2018-09-30T10:33:03.918Z,762.00
2018-09-30T10:34:04.677Z,762.00
2018-09-30T10:35:05.033Z,762.00
2018-09-30T10:36:05.596Z,762.00
2018-09-30T10:37:05.973Z,763.00
2018-09-30T10:38:06.298Z,762.00
2018-09-30T10:39:06.737Z,763.00
2018-09-30T10:40:06.016Z,762.00
2018-09-30T10:41:07.368Z,762.00
2018-09-30T10:42:07.814Z,762.00
2018-09-30T10:43:08.357Z,760.00
2018-09-30T10:44:08.837Z,760.00
2018-09-30T10:45:09.316Z,760.00
2018-09-30T10:46:09.949Z,760.00
2018-09-30T10:47:10.496Z,760.00
2018-09-30T10:48:10.815Z,759.00
2018-09-30T10:49:11.375Z,759.00
2018-09-30T10:50:11.746Z,760.00
2018-09-30T10:51:12.110Z,760.00
2018-09-30T10:52:12.482Z,760.00
2018-09-30T10:53:12.798Z,760.00
2018-09-30T10:54:13.141Z,762.00
2018-09-30T10:55:13.675Z,760.00
2018-09-30T10:56:13.182Z,760.00
2018-09-30T10:57:13.462Z,761.00
2018-09-30T10:58:14.785Z,761.00
2018-09-30T10:59:15.285Z,759.00
2018-09-30T11:00:15.624Z,760.00
2018-09-30T11:01:16.046Z,760.00
2018-09-30T11:02:16.392Z,760.00
2018-09-30T11:02:25.492Z,760.00
2018-09-30T11:03:26.853Z,760.00
2018-09-30T11:04:26.146Z,760.00
2018-09-30T11:05:27.618Z,760.00
2018-09-30T11:06:28.554Z,761.00
2018-09-30T11:07:29.029Z,762.00
2018-09-30T11:08:29.613Z,762.00
2018-09-30T11:09:29.940Z,763.00
2018-09-30T11:10:29.388Z,763.00
2018-09-30T11:11:30.741Z,762.00
2018-09-30T11:12:31.227Z,762.00
2018-09-30T11:13:31.609Z,760.00
2018-09-30T11:14:32.008Z,760.00
2018-09-30T11:15:32.981Z,759.00
2018-09-30T11:16:31.339Z,759.00
2018-09-30T11:17:32.689Z,759.00
2018-09-30T11:18:33.048Z,759.00
2018-09-30T11:19:33.369Z,758.00
2018-09-30T11:20:34.716Z,758.00
2018-09-30T11:21:34.166Z,758.00
2018-09-30T11:22:34.560Z,759.00
2018-09-30T11:23:33.806Z,758.00
2018-09-30T11:24:35.143Z,758.00
2018-09-30T11:25:35.472Z,759.00
2018-09-30T11:26:36.026Z,759.00
2018-09-30T11:27:36.338Z,758.00
2018-09-30T11:28:36.860Z,759.00
2018-09-30T11:29:37.214Z,759.00
2018-09-30T11:30:37.685Z,760.00
2018-09-30T11:31:38.062Z,760.00
2018-09-30T11:32:38.687Z,763.00
2018-09-30T11:33:38.012Z,764.00
2018-09-30T11:34:38.395Z,763.00
2018-09-30T11:35:39.932Z,761.00
2018-09-30T11:36:40.289Z,761.00
2018-09-30T11:37:40.626Z,763.00
2018-09-30T11:38:41.075Z,764.00
2018-09-30T11:39:41.489Z,763.00
2018-09-30T11:40:41.845Z,763.00
2018-09-30T11:41:42.264Z,761.00
2018-09-30T11:42:42.635Z,762.00
2018-09-30T11:43:41.914Z,761.00
2018-09-30T11:44:43.303Z,760.00
2018-09-30T11:45:43.832Z,760.00
2018-09-30T11:46:44.168Z,759.00
2018-09-30T11:47:46.975Z,759.00
2018-09-30T11:48:43.520Z,759.00
2018-09-30T11:49:45.094Z,759.00
2018-09-30T11:50:46.110Z,759.00
2018-09-30T11:51:46.476Z,758.00
2018-09-30T11:52:46.952Z,759.00
2018-09-30T11:52:54.983Z,759.00
2018-09-30T11:53:56.319Z,758.00
2018-09-30T11:54:56.795Z,759.00
2018-09-30T11:55:57.309Z,759.00
2018-09-30T11:56:57.699Z,761.00
2018-09-30T11:57:58.466Z,761.00
2018-09-30T11:58:58.822Z,760.00
2018-09-30T11:59:59.104Z,759.00
2018-09-30T12:00:59.497Z,760.00
2018-09-30T12:01:59.877Z,759.00
2018-09-30T12:03:00.170Z,759.00
2018-09-30T12:04:00.617Z,759.00
2018-09-30T12:05:01.219Z,759.00
2018-09-30T12:06:01.637Z,759.00
2018-09-30T12:07:01.964Z,759.00
2018-09-30T12:08:02.290Z,759.00
2018-09-30T12:09:02.623Z,759.00
2018-09-30T12:10:03.258Z,758.00
2018-09-30T12:11:03.823Z,758.00
2018-09-30T12:12:04.142Z,758.00
2018-09-30T12:13:04.584Z,758.00
2018-09-30T12:14:04.894Z,760.00
2018-09-30T12:15:05.235Z,760.00
2018-09-30T12:16:05.696Z,759.00
2018-09-30T12:17:05.992Z,758.00
2018-09-30T12:18:06.348Z,758.00
2018-09-30T12:19:06.697Z,758.00
2018-09-30T12:20:07.041Z,758.00
2018-09-30T12:21:07.446Z,757.00